createdAt,value
2023-02-22T00:00:40.996Z,0.00
2023-02-22T00:01:40.975Z,0.00
2023-02-22T00:02:40.920Z,0.00
2023-02-22T00:03:40.909Z,0.00
2023-02-22T00:04:40.914Z,0.00
2023-02-22T00:05:40.934Z,0.00
2023-02-22T00:06:40.888Z,0.00
2023-02-22T00:07:40.894Z,0.00
2023-02-22T00:08:40.889Z,0.00
2023-02-22T00:09:40.839Z,0.00
2023-02-22T00:10:40.841Z,0.00
2023-02-22T00:11:40.817Z,0.00
2023-02-22T00:12:40.859Z,0.00
2023-02-22T00:13:40.791Z,0.00
2023-02-22T00:14:40.775Z,0.00
2023-02-22T00:15:40.821Z,0.00
2023-02-22T00:16:40.842Z,0.00
2023-02-22T00:17:40.861Z,0.00
2023-02-22T00:18:40.764Z,0.00
2023-02-22T00:19:40.758Z,0.00
2023-02-22T00:20:40.760Z,0.00
2023-02-22T00:21:40.782Z,0.00
2023-02-22T00:22:40.699Z,0.00
2023-02-22T00:23:40.683Z,0.00
2023-02-22T00:24:40.696Z,0.00
2023-02-22T00:25:40.683Z,0.00
2023-02-22T00:26:40.667Z,0.00
2023-02-22T00:27:40.660Z,0.00
2023-02-22T00:28:40.640Z,0.00
2023-02-22T00:29:40.721Z,0.00
2023-02-22T00:30:41.552Z,0.00
2023-02-22T00:31:40.696Z,0.00
2023-02-22T00:32:40.647Z,0.00
2023-02-22T00:33:40.597Z,0.00
2023-02-22T00:34:40.562Z,0.00
2023-02-22T00:35:40.577Z,0.00
2023-02-22T00:36:40.521Z,0.00
2023-02-22T00:37:41.480Z,0.00
2023-02-22T00:38:40.517Z,0.00
2023-02-22T00:39:40.579Z,0.00
2023-02-22T00:40:40.518Z,0.00
2023-02-22T00:41:40.496Z,0.00
2023-02-22T00:42:40.508Z,0.00
2023-02-22T00:43:40.457Z,0.00
2023-02-22T00:44:40.477Z,0.00
2023-02-22T00:45:40.553Z,0.00
2023-02-22T00:46:40.457Z,0.00
2023-02-22T00:47:40.415Z,0.00
2023-02-22T00:48:40.419Z,0.00
2023-02-22T00:49:40.370Z,0.00
2023-02-22T00:50:40.529Z,0.00
2023-02-22T00:51:40.352Z,0.00
2023-02-22T00:52:40.363Z,0.00
2023-02-22T00:53:40.385Z,0.00
2023-02-22T00:54:40.329Z,0.00
2023-02-22T00:55:40.342Z,0.00
2023-02-22T00:56:40.318Z,0.00
2023-02-22T00:57:40.302Z,0.00
2023-02-22T00:58:40.342Z,0.00
2023-02-22T00:59:40.294Z,0.00
2023-02-22T01:00:40.318Z,0.00
2023-02-22T01:01:40.376Z,0.00
2023-02-22T01:02:40.392Z,0.00
2023-02-22T01:03:40.253Z,0.00
2023-02-22T01:04:40.213Z,0.00
2023-02-22T01:05:40.222Z,0.00
2023-02-22T01:06:40.209Z,0.00
2023-02-22T01:07:40.217Z,0.00
2023-02-22T01:08:40.178Z,0.00
2023-02-22T01:09:40.177Z,0.00
2023-02-22T01:10:40.253Z,0.00
2023-02-22T01:11:40.140Z,0.00
2023-02-22T01:12:40.144Z,0.00
2023-02-22T01:13:40.120Z,0.00
2023-02-22T01:14:40.133Z,0.00
2023-02-22T01:15:40.122Z,0.00
2023-02-22T01:16:40.115Z,0.00
2023-02-22T01:17:40.096Z,0.00
2023-02-22T01:18:40.064Z,0.00
2023-02-22T01:19:40.040Z,0.00
2023-02-22T01:20:40.096Z,0.00
2023-02-22T01:21:40.023Z,0.00
2023-02-22T01:22:40.021Z,0.00
2023-02-22T01:23:40.007Z,0.00
2023-02-22T01:24:39.966Z,0.00
2023-02-22T01:25:40.064Z,0.00
2023-02-22T01:26:39.943Z,0.00
2023-02-22T01:27:39.967Z,0.00
2023-02-22T01:28:39.938Z,0.00
2023-02-22T01:29:39.958Z,0.00
2023-02-22T01:30:40.103Z,0.00
2023-02-22T01:31:39.989Z,0.00
2023-02-22T01:32:39.908Z,0.00
2023-02-22T01:33:39.924Z,0.00
2023-02-22T01:34:39.900Z,0.00
2023-02-22T01:35:39.921Z,0.00
2023-02-22T01:36:39.880Z,0.00
2023-02-22T01:37:39.845Z,0.00
2023-02-22T01:38:39.816Z,0.00
2023-02-22T01:39:39.805Z,0.00
2023-02-22T01:40:39.854Z,0.00
2023-02-22T01:41:39.800Z,0.00
2023-02-22T01:42:39.782Z,0.00
2023-02-22T01:43:39.825Z,0.00
2023-02-22T01:44:39.764Z,0.00
2023-02-22T01:45:39.797Z,0.00
2023-02-22T01:46:39.745Z,0.00
2023-02-22T01:47:39.746Z,0.00
2023-02-22T01:48:39.732Z,0.00
2023-02-22T01:49:39.680Z,0.00
2023-02-22T01:50:39.700Z,0.00
2023-02-22T01:51:39.673Z,0.00
2023-02-22T01:52:39.684Z,0.00
2023-02-22T01:53:39.629Z,0.00
2023-02-22T01:54:39.618Z,0.00
2023-02-22T01:55:39.625Z,0.00
2023-02-22T01:56:39.604Z,0.00
2023-02-22T01:57:39.580Z,0.00
2023-02-22T01:58:39.578Z,0.00
2023-02-22T01:59:39.558Z,0.00
2023-02-22T02:00:39.575Z,0.00
2023-02-22T02:01:39.565Z,0.00
2023-02-22T02:02:39.525Z,0.00
2023-02-22T02:03:39.546Z,0.00
2023-02-22T02:04:39.538Z,0.00
2023-02-22T02:05:39.512Z,0.00
2023-02-22T02:06:39.482Z,0.00
2023-02-22T02:07:39.492Z,0.00
2023-02-22T02:08:39.462Z,0.00
2023-02-22T02:09:39.448Z,0.00
2023-02-22T02:10:39.459Z,0.00
2023-02-22T02:11:39.429Z,0.00
2023-02-22T02:12:39.418Z,0.00
2023-02-22T02:13:39.417Z,0.00
2023-02-22T02:14:39.391Z,0.00
2023-02-22T02:15:39.430Z,0.00
2023-02-22T02:16:39.405Z,0.00
2023-02-22T02:17:39.356Z,0.00
2023-02-22T02:18:39.348Z,0.00
2023-02-22T02:19:39.339Z,0.00
2023-02-22T02:20:39.350Z,0.00
2023-02-22T02:21:39.309Z,0.00
2023-02-22T02:22:39.311Z,0.00
2023-02-22T02:23:39.291Z,0.00
2023-02-22T02:24:39.279Z,0.00
2023-02-22T02:25:39.318Z,0.00
2023-02-22T02:26:39.253Z,0.00
2023-02-22T02:27:39.254Z,0.00
2023-02-22T02:28:39.245Z,0.00
2023-02-22T02:29:39.224Z,0.00
2023-02-22T02:30:39.242Z,0.00
2023-02-22T02:31:39.274Z,0.00
2023-02-22T02:32:39.230Z,0.00
2023-02-22T02:33:39.188Z,0.00
2023-02-22T02:34:39.165Z,0.00
2023-02-22T02:35:39.207Z,0.00
2023-02-22T02:36:39.154Z,0.00
2023-02-22T02:37:39.129Z,0.00
2023-02-22T02:38:39.165Z,0.00
2023-02-22T02:39:39.107Z,0.00
2023-02-22T02:40:39.142Z,0.00
2023-02-22T02:41:39.084Z,0.00
2023-02-22T02:42:39.098Z,0.00
2023-02-22T02:43:39.070Z,0.00
2023-02-22T02:44:39.053Z,0.00
2023-02-22T02:45:39.085Z,0.00
2023-02-22T02:46:39.041Z,0.00
2023-02-22T02:47:39.014Z,0.00
2023-02-22T02:48:39.022Z,0.00
2023-02-22T02:49:38.996Z,0.00
2023-02-22T02:50:39.014Z,0.00
2023-02-22T02:51:38.987Z,0.00
2023-02-22T02:52:38.967Z,0.00
2023-02-22T02:53:38.962Z,0.00
2023-02-22T02:54:38.945Z,0.00
2023-02-22T02:55:38.962Z,0.00
2023-02-22T02:56:38.928Z,0.00
2023-02-22T02:57:38.905Z,0.00
2023-02-22T02:58:38.941Z,0.00
2023-02-22T02:59:38.886Z,0.00
2023-02-22T03:00:38.900Z,0.00
2023-02-22T03:01:38.921Z,0.00
2023-02-22T03:02:38.854Z,0.00
2023-02-22T03:03:38.845Z,0.00
2023-02-22T03:04:38.850Z,0.00
2023-02-22T03:05:38.834Z,0.00
2023-02-22T03:06:38.814Z,0.00
2023-02-22T03:07:38.849Z,0.00
2023-02-22T03:08:38.793Z,0.00
2023-02-22T03:09:38.769Z,0.00
2023-02-22T03:10:38.784Z,0.00
2023-02-22T03:11:38.757Z,0.00
2023-02-22T03:12:38.743Z,0.00
2023-02-22T03:13:38.725Z,0.00
2023-02-22T03:14:38.714Z,0.00
2023-02-22T03:15:38.753Z,0.00
2023-02-22T03:16:38.775Z,0.00
2023-02-22T03:17:38.680Z,0.00
2023-02-22T03:18:38.670Z,0.00
2023-02-22T03:19:38.686Z,0.00
2023-02-22T03:20:38.677Z,0.00
2023-02-22T03:21:38.634Z,0.00
2023-02-22T03:22:38.651Z,0.00
2023-02-22T03:23:38.616Z,0.00
2023-02-22T03:24:38.609Z,0.00
2023-02-22T03:25:38.608Z,0.00
2023-02-22T03:26:38.605Z,0.00
2023-02-22T03:27:38.567Z,0.00
2023-02-22T03:28:38.563Z,0.00
2023-02-22T03:29:38.572Z,0.00
2023-02-22T03:30:38.572Z,0.00
2023-02-22T03:31:38.524Z,0.00
2023-02-22T03:32:38.518Z,0.00
2023-02-22T03:33:38.533Z,0.00
2023-02-22T03:34:38.495Z,0.00
2023-02-22T03:35:38.512Z,0.00
2023-02-22T03:36:38.475Z,0.00
2023-02-22T03:37:38.454Z,0.00
2023-02-22T03:38:38.460Z,0.00
2023-02-22T03:39:38.456Z,0.00
2023-02-22T03:40:38.456Z,0.00
2023-02-22T03:41:38.439Z,0.00
2023-02-22T03:42:38.405Z,0.00
2023-02-22T03:43:38.398Z,0.00
2023-02-22T03:44:38.382Z,0.00
2023-02-22T03:45:38.385Z,0.00
2023-02-22T03:46:38.397Z,0.00
2023-02-22T03:47:38.340Z,0.00
2023-02-22T03:48:38.343Z,0.00
2023-02-22T03:49:38.348Z,0.00
2023-02-22T03:50:38.339Z,0.00
2023-02-22T03:51:38.305Z,0.00
2023-02-22T03:52:38.303Z,0.00
2023-02-22T03:53:38.272Z,0.00
2023-02-22T03:54:38.274Z,0.00
2023-02-22T03:55:38.289Z,0.00
2023-02-22T03:56:38.269Z,0.00
2023-02-22T03:57:38.235Z,0.00
2023-02-22T03:58:38.253Z,0.00
2023-02-22T03:59:38.212Z,0.00
2023-02-22T04:00:38.231Z,0.00
2023-02-22T04:01:38.183Z,0.00
2023-02-22T04:02:38.223Z,0.00
2023-02-22T04:03:38.175Z,0.00
2023-02-22T04:04:38.206Z,0.00
2023-02-22T04:05:38.195Z,0.00
2023-02-22T04:06:38.139Z,0.00
2023-02-22T04:07:38.129Z,0.00
2023-02-22T04:08:38.117Z,0.00
2023-02-22T04:09:38.130Z,0.00
2023-02-22T04:10:38.113Z,0.00
2023-02-22T04:11:38.083Z,0.00
2023-02-22T04:12:38.064Z,0.00
2023-02-22T04:13:38.095Z,0.00
2023-02-22T04:14:38.046Z,0.00
2023-02-22T04:15:38.102Z,0.00
2023-02-22T04:16:38.020Z,0.00
2023-02-22T04:17:38.055Z,0.00
2023-02-22T04:18:37.998Z,0.00
2023-02-22T04:19:37.985Z,0.00
2023-02-22T04:20:38.004Z,0.00
2023-02-22T04:21:38.001Z,0.00
2023-02-22T04:22:37.956Z,0.00
2023-02-22T04:23:37.949Z,0.00
2023-02-22T04:24:37.949Z,0.00
2023-02-22T04:25:37.950Z,0.00
2023-02-22T04:26:37.908Z,0.00
2023-02-22T04:27:37.894Z,0.00
2023-02-22T04:28:37.890Z,0.00
2023-02-22T04:29:37.948Z,0.00
2023-02-22T04:30:37.975Z,0.00
2023-02-22T04:31:37.950Z,0.00
2023-02-22T04:32:37.852Z,0.00
2023-02-22T04:33:37.825Z,0.00
2023-02-22T04:34:37.820Z,0.00
2023-02-22T04:35:37.831Z,0.00
2023-02-22T04:36:37.834Z,0.00
2023-02-22T04:37:37.782Z,0.00
2023-02-22T04:38:37.771Z,0.00
2023-02-22T04:39:37.789Z,0.00
2023-02-22T04:40:37.784Z,0.00
2023-02-22T04:41:37.748Z,0.00
2023-02-22T04:42:37.747Z,0.00
2023-02-22T04:43:37.711Z,0.00
2023-02-22T04:44:37.701Z,0.00
2023-02-22T04:45:37.746Z,0.00
2023-02-22T04:46:37.714Z,0.00
2023-02-22T04:47:37.670Z,0.00
2023-02-22T04:48:37.656Z,0.00
2023-02-22T04:49:39.077Z,0.00
2023-02-22T04:50:37.692Z,0.00
2023-02-22T04:51:37.647Z,0.00
2023-02-22T04:52:37.621Z,0.00
2023-02-22T04:53:37.606Z,0.00
2023-02-22T04:54:37.598Z,0.00
2023-02-22T04:55:37.613Z,0.00
2023-02-22T04:56:37.576Z,0.00
2023-02-22T04:57:37.549Z,0.00
2023-02-22T04:58:37.551Z,0.00
2023-02-22T04:59:37.556Z,0.00
2023-02-22T05:00:37.546Z,0.00
2023-02-22T05:01:37.509Z,0.00
2023-02-22T05:02:37.561Z,0.00
2023-02-22T05:03:37.524Z,0.00
2023-02-22T05:04:37.503Z,0.00
2023-02-22T05:05:37.488Z,0.00
2023-02-22T05:06:37.458Z,0.00
2023-02-22T05:07:37.444Z,0.00
2023-02-22T05:08:37.434Z,0.00
2023-02-22T05:09:37.434Z,0.00
2023-02-22T05:10:37.433Z,0.00
2023-02-22T05:11:37.426Z,0.00
2023-02-22T05:12:37.386Z,0.00
2023-02-22T05:13:37.384Z,0.00
2023-02-22T05:14:37.363Z,0.00
2023-02-22T05:15:37.382Z,0.00
2023-02-22T05:16:37.341Z,0.00
2023-02-22T05:17:37.323Z,0.00
2023-02-22T05:18:37.334Z,0.00
2023-02-22T05:19:37.321Z,0.00
2023-02-22T05:20:37.321Z,0.00
2023-02-22T05:21:37.294Z,0.00
2023-02-22T05:22:37.293Z,0.00
2023-02-22T05:23:37.286Z,0.00
2023-02-22T05:24:37.260Z,0.00
2023-02-22T05:25:37.265Z,0.00
2023-02-22T05:26:37.231Z,0.00
2023-02-22T05:27:37.213Z,0.00
2023-02-22T05:28:37.201Z,0.00
2023-02-22T05:29:37.191Z,0.00
2023-02-22T05:30:37.242Z,0.00
2023-02-22T05:31:37.274Z,0.00
2023-02-22T05:32:37.164Z,0.00
2023-02-22T05:33:37.143Z,0.00
2023-02-22T05:34:37.151Z,0.00
2023-02-22T05:35:37.158Z,0.00
2023-02-22T05:36:37.117Z,0.00
2023-02-22T05:37:37.113Z,0.00
2023-02-22T05:38:37.087Z,0.00
2023-02-22T05:39:37.076Z,0.00
2023-02-22T05:40:37.102Z,0.00
2023-02-22T05:41:37.055Z,0.00
2023-02-22T05:42:37.056Z,0.00
2023-02-22T05:43:37.027Z,0.00
2023-02-22T05:44:37.033Z,0.00
2023-02-22T05:45:37.039Z,0.00
2023-02-22T05:46:37.039Z,0.00
2023-02-22T05:47:36.986Z,0.00
2023-02-22T05:48:37.008Z,0.00
2023-02-22T05:49:36.969Z,0.00
2023-02-22T05:50:36.981Z,0.00
2023-02-22T05:51:36.941Z,0.00
2023-02-22T05:52:36.940Z,0.00
2023-02-22T05:53:36.924Z,0.00
2023-02-22T05:54:36.915Z,0.00
2023-02-22T05:55:36.947Z,0.00
2023-02-22T05:56:36.937Z,0.00
2023-02-22T05:57:36.876Z,0.00
2023-02-22T05:58:36.881Z,0.00
2023-02-22T05:59:36.855Z,0.00
2023-02-22T06:00:36.857Z,0.00
2023-02-22T06:01:36.865Z,0.00
2023-02-22T06:02:36.819Z,0.00
2023-02-22T06:03:36.811Z,0.00
2023-02-22T06:04:36.792Z,0.00
2023-02-22T06:05:36.846Z,0.00
2023-02-22T06:06:36.772Z,4.00
2023-02-22T06:07:36.790Z,0.00
2023-02-22T06:08:36.761Z,0.00
2023-02-22T06:09:36.729Z,4.00
2023-02-22T06:10:36.752Z,4.00
2023-02-22T06:11:36.716Z,0.00
2023-02-22T06:12:36.697Z,4.00
2023-02-22T06:13:36.715Z,4.00
2023-02-22T06:14:36.684Z,4.00
2023-02-22T06:15:36.711Z,8.00
2023-02-22T06:16:36.698Z,8.00
2023-02-22T06:17:36.646Z,8.00
2023-02-22T06:18:36.645Z,12.00
2023-02-22T06:19:36.615Z,8.00
2023-02-22T06:20:36.675Z,12.00
2023-02-22T06:21:36.601Z,16.00
2023-02-22T06:22:36.588Z,16.00
2023-02-22T06:23:36.588Z,16.00
2023-02-22T06:24:36.604Z,20.00
2023-02-22T06:25:36.603Z,24.00
2023-02-22T06:26:36.563Z,24.00
2023-02-22T06:27:36.530Z,24.00
2023-02-22T06:28:36.524Z,32.00
2023-02-22T06:29:36.502Z,36.00
2023-02-22T06:30:36.622Z,36.00
2023-02-22T06:31:36.543Z,36.00
2023-02-22T06:32:36.476Z,40.00
2023-02-22T06:33:36.584Z,44.00
2023-02-22T06:34:36.458Z,48.00
2023-02-22T06:35:36.454Z,52.00
2023-02-22T06:36:36.433Z,56.00
2023-02-22T06:37:36.414Z,60.00
2023-02-22T06:38:36.406Z,68.00
2023-02-22T06:39:36.544Z,72.00
2023-02-22T06:40:36.387Z,76.00
2023-02-22T06:41:36.466Z,84.00
2023-02-22T06:42:36.387Z,88.00
2023-02-22T06:43:36.370Z,100.00
2023-02-22T06:44:36.344Z,104.00
2023-02-22T06:45:36.405Z,108.00
2023-02-22T06:46:36.315Z,120.00
2023-02-22T06:47:36.312Z,124.00
2023-02-22T06:48:36.288Z,132.00
2023-02-22T06:49:36.287Z,140.00
2023-02-22T06:50:36.336Z,148.00
2023-02-22T06:51:36.288Z,160.00
2023-02-22T06:52:36.241Z,168.00
2023-02-22T06:53:36.232Z,168.00
2023-02-22T06:54:36.228Z,176.00
2023-02-22T06:55:36.206Z,184.00
2023-02-22T06:56:36.221Z,192.00
2023-02-22T06:57:36.178Z,208.00
2023-02-22T06:58:36.190Z,216.00
2023-02-22T06:59:36.168Z,228.00
2023-02-22T07:00:36.231Z,244.00
2023-02-22T07:01:36.183Z,264.00
2023-02-22T07:02:36.171Z,280.00
2023-02-22T07:03:36.189Z,292.00
2023-02-22T07:04:37.157Z,296.00
2023-02-22T07:05:36.103Z,300.00
2023-02-22T07:06:36.119Z,304.00
2023-02-22T07:07:36.170Z,312.00
2023-02-22T07:08:36.075Z,328.00
2023-02-22T07:09:36.053Z,336.00
2023-02-22T07:10:36.086Z,348.00
2023-02-22T07:11:36.855Z,364.00
2023-02-22T07:12:36.047Z,372.00
2023-02-22T07:13:36.014Z,376.00
2023-02-22T07:14:36.075Z,388.00
2023-02-22T07:15:36.042Z,392.00
2023-02-22T07:16:36.014Z,404.00
2023-02-22T07:17:35.984Z,420.00
2023-02-22T07:18:35.959Z,424.00
2023-02-22T07:19:35.988Z,440.00
2023-02-22T07:20:35.991Z,448.00
2023-02-22T07:21:35.922Z,464.00
2023-02-22T07:22:35.908Z,496.00
2023-02-22T07:23:35.901Z,524.00
2023-02-22T07:24:35.912Z,564.00
2023-02-22T07:25:35.916Z,604.00
2023-02-22T07:26:35.889Z,640.00
2023-02-22T07:27:35.843Z,664.00
2023-02-22T07:28:35.840Z,688.00
2023-02-22T07:29:35.872Z,704.00
2023-02-22T07:30:35.882Z,744.00
2023-02-22T07:31:35.802Z,788.00
2023-02-22T07:32:35.875Z,812.00
2023-02-22T07:33:35.793Z,792.00
2023-02-22T07:34:35.786Z,776.00
2023-02-22T07:35:35.860Z,820.00
2023-02-22T07:36:35.771Z,840.00
2023-02-22T07:37:35.735Z,856.00
2023-02-22T07:38:35.733Z,872.00
2023-02-22T07:39:35.720Z,872.00
2023-02-22T07:40:35.735Z,856.00
2023-02-22T07:41:35.689Z,852.00
2023-02-22T07:42:35.808Z,844.00
2023-02-22T07:43:35.761Z,852.00
2023-02-22T07:44:35.696Z,884.00
2023-02-22T07:45:35.830Z,904.00
2023-02-22T07:46:35.728Z,936.00
2023-02-22T07:47:35.706Z,948.00
2023-02-22T07:48:35.646Z,940.00
2023-02-22T07:49:35.601Z,952.00
2023-02-22T07:50:35.718Z,960.00
2023-02-22T07:51:35.576Z,948.00
2023-02-22T07:52:35.567Z,924.00
2023-02-22T07:53:35.558Z,900.00
2023-02-22T07:54:35.559Z,888.00
2023-02-22T07:55:35.583Z,888.00
2023-02-22T07:56:35.556Z,880.00
2023-02-22T07:57:35.515Z,864.00
2023-02-22T07:58:35.526Z,876.00
2023-02-22T07:59:35.490Z,896.00
2023-02-22T08:00:35.516Z,908.00
2023-02-22T08:01:37.381Z,928.00
2023-02-22T08:02:35.483Z,928.00
2023-02-22T08:03:35.517Z,952.00
2023-02-22T08:04:35.433Z,968.00
2023-02-22T08:05:35.503Z,980.00
2023-02-22T08:06:35.429Z,972.00
2023-02-22T08:07:35.400Z,976.00
2023-02-22T08:08:35.407Z,992.00
2023-02-22T08:09:35.386Z,1008.00
2023-02-22T08:10:35.429Z,1032.00
2023-02-22T08:11:35.399Z,1068.00
2023-02-22T08:12:35.342Z,1100.00
2023-02-22T08:13:35.334Z,1140.00
2023-02-22T08:14:35.337Z,1144.00
2023-02-22T08:15:35.337Z,1164.00
2023-02-22T08:16:35.368Z,1208.00
2023-02-22T08:17:35.279Z,1264.00
2023-02-22T08:18:35.272Z,1300.00
2023-02-22T08:19:35.260Z,1344.00
2023-02-22T08:20:35.268Z,1376.00
2023-02-22T08:21:35.237Z,1408.00
2023-02-22T08:22:35.243Z,1416.00
2023-02-22T08:23:35.217Z,1452.00
2023-02-22T08:24:35.223Z,1476.00
2023-02-22T08:25:35.237Z,1508.00
2023-02-22T08:26:35.202Z,1576.00
2023-02-22T08:27:35.169Z,1680.00
2023-02-22T08:28:35.157Z,1800.00
2023-02-22T08:29:35.144Z,1812.00
2023-02-22T08:30:35.348Z,1872.00
2023-02-22T08:31:35.150Z,1812.00
2023-02-22T08:32:35.158Z,1896.00
2023-02-22T08:33:35.105Z,1952.00
2023-02-22T08:34:35.096Z,2012.00
2023-02-22T08:35:35.100Z,1988.00
2023-02-22T08:36:35.064Z,2024.00
2023-02-22T08:37:35.055Z,2064.00
2023-02-22T08:38:35.061Z,2068.00
2023-02-22T08:39:35.065Z,2104.00
2023-02-22T08:40:35.065Z,2080.00
2023-02-22T08:41:35.035Z,2048.00
2023-02-22T08:42:35.002Z,2048.00
2023-02-22T08:43:34.991Z,2092.00
2023-02-22T08:44:34.993Z,2024.00
2023-02-22T08:45:35.090Z,2016.00
2023-02-22T08:46:35.013Z,2044.00
2023-02-22T08:47:34.971Z,2064.00
2023-02-22T08:48:34.923Z,2092.00
2023-02-22T08:49:34.916Z,2152.00
2023-02-22T08:50:34.947Z,2192.00
2023-02-22T08:51:34.917Z,2244.00
2023-02-22T08:52:34.891Z,2276.00
2023-02-22T08:53:34.878Z,2304.00
2023-02-22T08:54:34.872Z,2416.00
2023-02-22T08:55:34.868Z,2548.00
2023-02-22T08:56:34.851Z,2548.00
2023-02-22T08:57:34.833Z,2616.00
2023-02-22T08:58:34.803Z,2724.00
2023-02-22T08:59:34.802Z,2676.00
2023-02-22T09:00:34.818Z,2644.00
2023-02-22T09:01:35.369Z,2652.00
2023-02-22T09:02:34.776Z,2668.00
2023-02-22T09:03:34.769Z,2724.00
2023-02-22T09:04:34.745Z,2712.00
2023-02-22T09:05:34.795Z,2664.00
2023-02-22T09:06:34.716Z,2704.00
2023-02-22T09:07:34.728Z,2716.00
2023-02-22T09:08:34.839Z,2672.00
2023-02-22T09:09:34.710Z,2744.00
2023-02-22T09:10:34.720Z,3068.00
2023-02-22T09:11:35.688Z,3140.00
2023-02-22T09:12:34.656Z,3216.00
2023-02-22T09:13:34.719Z,3288.00
2023-02-22T09:14:34.655Z,3352.00
2023-02-22T09:15:34.657Z,3604.00
2023-02-22T09:16:34.671Z,3560.00
2023-02-22T09:17:34.614Z,3524.00
2023-02-22T09:18:43.797Z,3676.00
2023-02-22T09:19:34.583Z,3876.00
2023-02-22T09:20:34.628Z,3876.00
2023-02-22T09:21:34.578Z,3532.00
2023-02-22T09:22:34.646Z,3556.00
2023-02-22T09:23:34.600Z,3612.00
2023-02-22T09:24:34.528Z,3604.00
2023-02-22T09:25:34.573Z,3708.00
2023-02-22T09:26:34.508Z,3664.00
2023-02-22T09:27:34.513Z,3780.00
2023-02-22T09:28:34.499Z,3876.00
2023-02-22T09:29:34.549Z,3960.00
2023-02-22T09:30:34.496Z,3988.00
2023-02-22T09:31:34.595Z,4092.00
2023-02-22T09:32:34.582Z,4148.00
2023-02-22T09:33:34.441Z,4344.00
2023-02-22T09:34:34.445Z,4592.00
2023-02-22T09:35:34.432Z,4476.00
2023-02-22T09:36:34.437Z,4628.00
2023-02-22T09:37:34.416Z,4780.00
2023-02-22T09:38:34.434Z,4764.00
2023-02-22T09:39:34.403Z,4636.00
2023-02-22T09:40:34.375Z,4132.00
2023-02-22T09:41:36.272Z,4124.00
2023-02-22T09:42:34.359Z,4400.00
2023-02-22T09:43:34.331Z,4268.00
2023-02-22T09:44:34.335Z,4144.00
2023-02-22T09:45:34.418Z,4068.00
2023-02-22T09:46:34.276Z,3960.00
2023-02-22T09:47:34.314Z,3900.00
2023-02-22T09:48:34.249Z,3972.00
2023-02-22T09:49:34.244Z,4020.00
2023-02-22T09:50:34.286Z,4012.00
2023-02-22T09:51:34.252Z,4084.00
2023-02-22T09:52:34.217Z,3996.00
2023-02-22T09:53:34.200Z,4040.00
2023-02-22T09:54:34.264Z,3968.00
2023-02-22T09:55:34.276Z,4004.00
2023-02-22T09:56:34.226Z,4088.00
2023-02-22T09:57:34.170Z,4132.00
2023-02-22T09:58:34.148Z,4132.00
2023-02-22T09:59:34.149Z,4196.00
2023-02-22T10:00:34.171Z,4244.00
2023-02-22T10:01:34.111Z,4204.00
2023-02-22T10:02:34.136Z,4172.00
2023-02-22T10:03:34.142Z,4132.00
2023-02-22T10:04:34.070Z,4112.00
2023-02-22T10:05:34.565Z,4084.00
2023-02-22T10:06:34.169Z,4072.00
2023-02-22T10:07:34.129Z,4056.00
2023-02-22T10:08:34.027Z,4040.00
2023-02-22T10:09:34.027Z,4016.00
2023-02-22T10:10:34.045Z,4052.00
2023-02-22T10:11:34.004Z,4064.00
2023-02-22T10:12:34.025Z,4052.00
2023-02-22T10:13:34.004Z,4104.00
2023-02-22T10:14:33.966Z,4180.00
2023-02-22T10:15:33.991Z,4164.00
2023-02-22T10:16:33.984Z,4180.00
2023-02-22T10:17:33.937Z,4188.00
2023-02-22T10:18:33.926Z,4216.00
2023-02-22T10:19:33.936Z,4216.00
2023-02-22T10:20:33.917Z,4264.00
2023-02-22T10:21:34.053Z,4312.00
2023-02-22T10:22:33.879Z,4380.00
2023-02-22T10:23:33.878Z,4404.00
2023-02-22T10:24:33.860Z,4376.00
2023-02-22T10:25:33.884Z,4420.00
2023-02-22T10:26:33.831Z,4448.00
2023-02-22T10:27:33.835Z,4468.00
2023-02-22T10:28:33.833Z,4436.00
2023-02-22T10:29:33.794Z,4440.00
2023-02-22T10:30:34.527Z,4484.00
2023-02-22T10:31:33.985Z,4560.00
2023-02-22T10:32:33.827Z,4552.00
2023-02-22T10:33:33.766Z,4540.00
2023-02-22T10:34:33.742Z,4588.00
2023-02-22T10:35:33.765Z,4560.00
2023-02-22T10:36:33.744Z,4552.00
2023-02-22T10:37:33.769Z,4572.00
2023-02-22T10:38:33.740Z,4536.00
2023-02-22T10:39:33.709Z,4552.00
2023-02-22T10:40:33.715Z,4580.00
2023-02-22T10:41:33.694Z,4556.00
2023-02-22T10:42:33.666Z,4516.00
2023-02-22T10:43:33.656Z,4508.00
2023-02-22T10:44:33.628Z,4552.00
2023-02-22T10:45:33.687Z,4556.00
2023-02-22T10:46:33.609Z,4624.00
2023-02-22T10:47:33.628Z,4620.00
2023-02-22T10:48:33.620Z,4564.00
2023-02-22T10:49:33.572Z,4612.00
2023-02-22T10:50:33.586Z,4568.00
2023-02-22T10:51:33.562Z,4540.00
2023-02-22T10:52:33.551Z,4540.00
2023-02-22T10:53:36.324Z,4536.00
2023-02-22T10:54:33.553Z,4516.00
2023-02-22T10:55:33.542Z,4628.00
2023-02-22T10:56:33.592Z,4732.00
2023-02-22T10:57:33.490Z,4640.00
2023-02-22T10:58:33.478Z,4588.00
2023-02-22T10:59:33.544Z,4660.00
2023-02-22T11:00:33.473Z,4708.00
2023-02-22T11:01:33.480Z,4672.00
2023-02-22T11:02:33.427Z,4700.00
2023-02-22T11:03:33.411Z,4720.00
2023-02-22T11:04:33.397Z,4808.00
2023-02-22T11:05:33.416Z,4780.00
2023-02-22T11:06:33.420Z,4784.00
2023-02-22T11:07:33.364Z,4808.00
2023-02-22T11:08:33.379Z,4820.00
2023-02-22T11:09:33.340Z,4768.00
2023-02-22T11:10:33.347Z,4716.00
2023-02-22T11:11:33.376Z,4728.00
2023-02-22T11:12:33.321Z,4804.00
2023-02-22T11:13:33.327Z,4868.00
2023-02-22T11:14:33.417Z,4928.00
2023-02-22T11:15:33.285Z,4932.00
2023-02-22T11:16:33.319Z,4824.00
2023-02-22T11:17:33.278Z,4820.00
2023-02-22T11:18:33.241Z,4812.00
2023-02-22T11:19:33.253Z,4832.00
2023-02-22T11:20:33.213Z,4796.00
2023-02-22T11:21:33.227Z,4776.00
2023-02-22T11:22:33.183Z,4788.00
2023-02-22T11:23:33.184Z,4716.00
2023-02-22T11:24:48.372Z,4756.00
2023-02-22T11:25:33.164Z,4780.00
2023-02-22T11:26:33.178Z,4796.00
2023-02-22T11:27:33.144Z,4852.00
2023-02-22T11:28:33.186Z,4876.00
2023-02-22T11:29:33.128Z,4872.00
2023-02-22T11:30:33.196Z,4908.00
2023-02-22T11:31:33.176Z,4940.00
2023-02-22T11:32:33.083Z,4936.00
2023-02-22T11:33:33.075Z,5000.00
2023-02-22T11:34:33.063Z,5036.00
2023-02-22T11:35:33.065Z,5068.00
2023-02-22T11:36:33.048Z,5100.00
2023-02-22T11:37:33.017Z,5152.00
2023-02-22T11:38:33.006Z,5212.00
2023-02-22T11:39:33.098Z,5212.00
2023-02-22T11:40:34.741Z,5220.00
2023-02-22T11:41:32.999Z,5224.00
2023-02-22T11:42:33.419Z,5172.00
2023-02-22T11:43:32.950Z,5144.00
2023-02-22T11:44:32.971Z,5120.00
2023-02-22T11:45:32.952Z,5080.00
2023-02-22T11:46:32.954Z,5040.00
2023-02-22T11:47:32.899Z,5012.00
2023-02-22T11:48:32.892Z,4924.00
2023-02-22T11:49:32.889Z,4980.00
2023-02-22T11:50:32.878Z,5204.00
2023-02-22T11:51:32.893Z,5172.00
2023-02-22T11:52:32.844Z,5176.00
2023-02-22T11:53:32.833Z,5140.00
2023-02-22T11:54:32.825Z,5172.00
2023-02-22T11:55:42.494Z,5216.00
2023-02-22T11:56:39.080Z,5252.00
2023-02-22T11:57:32.790Z,5236.00
2023-02-22T11:58:32.867Z,5176.00
2023-02-22T11:59:32.762Z,5224.00
2023-02-22T12:00:32.745Z,5144.00
2023-02-22T12:01:32.783Z,5152.00
2023-02-22T12:02:32.723Z,4920.00
2023-02-22T12:03:32.729Z,5056.00
2023-02-22T12:04:32.831Z,5052.00
2023-02-22T12:05:32.689Z,4988.00
2023-02-22T12:06:32.697Z,4912.00
2023-02-22T12:07:32.671Z,4888.00
2023-02-22T12:08:32.654Z,4788.00
2023-02-22T12:09:32.642Z,4732.00
2023-02-22T12:10:32.650Z,4664.00
2023-02-22T12:11:32.637Z,4636.00
2023-02-22T12:12:32.604Z,4624.00
2023-02-22T12:13:32.600Z,4620.00
2023-02-22T12:14:32.580Z,4636.00
2023-02-22T12:15:32.612Z,4644.00
2023-02-22T12:16:32.584Z,4636.00
2023-02-22T12:17:32.556Z,4712.00
2023-02-22T12:18:32.538Z,4720.00
2023-02-22T12:19:32.539Z,4724.00
2023-02-22T12:20:32.510Z,4768.00
2023-02-22T12:21:32.541Z,4724.00
2023-02-22T12:22:32.501Z,4716.00
2023-02-22T12:23:32.487Z,4712.00
2023-02-22T12:24:32.481Z,4516.00
2023-02-22T12:25:32.462Z,4404.00
2023-02-22T12:26:32.476Z,4452.00
2023-02-22T12:27:32.436Z,4440.00
2023-02-22T12:28:32.430Z,4448.00
2023-02-22T12:29:32.415Z,4584.00
2023-02-22T12:30:32.424Z,4556.00
2023-02-22T12:31:32.450Z,4632.00
2023-02-22T12:32:32.516Z,4692.00
2023-02-22T12:33:32.400Z,4696.00
2023-02-22T12:34:32.454Z,4668.00
2023-02-22T12:35:32.361Z,4592.00
2023-02-22T12:36:32.366Z,4504.00
2023-02-22T12:37:32.327Z,4416.00
2023-02-22T12:38:32.345Z,4380.00
2023-02-22T12:39:38.244Z,4336.00
2023-02-22T12:40:32.289Z,4376.00
2023-02-22T12:41:32.313Z,4396.00
2023-02-22T12:42:32.283Z,4380.00
2023-02-22T12:43:32.262Z,4364.00
2023-02-22T12:44:32.235Z,4404.00